createdAt,value
2018-01-04T00:04:39.672Z,97390.10
2018-01-04T00:10:43.284Z,97380.98
2018-01-04T00:16:46.940Z,97381.43
2018-01-04T00:22:51.468Z,97391.27
2018-01-04T00:28:55.347Z,97397.80
2018-01-04T00:34:58.909Z,97385.94
2018-01-04T00:41:02.411Z,97381.63
2018-01-04T00:47:06.006Z,97389.08
2018-01-04T00:53:09.564Z,97382.31
2018-01-04T00:59:13.053Z,97392.73
2018-01-04T01:05:17.310Z,97391.57
2018-01-04T01:11:20.781Z,97401.87
2018-01-04T01:17:26.127Z,97407.92
2018-01-04T01:23:30.073Z,97403.93
2018-01-04T01:29:33.624Z,97410.51
2018-01-04T01:35:37.222Z,97414.56
2018-01-04T01:41:40.694Z,97420.27
2018-01-04T01:47:44.335Z,97430.67
2018-01-04T01:59:56.945Z,97417.13
2018-01-04T02:06:00.655Z,97412.41
2018-01-04T02:12:04.994Z,97417.14
2018-01-04T02:18:26.270Z,97409.59
2018-01-04T02:24:47.666Z,97423.72
2018-01-04T02:31:09.578Z,97423.84
2018-01-04T02:37:30.712Z,97421.59
2018-01-04T02:43:52.803Z,97429.03
2018-01-04T02:49:57.397Z,97434.77
2018-01-04T02:56:01.017Z,97445.06
2018-01-04T03:02:04.687Z,97452.58
2018-01-04T03:08:08.260Z,97451.88
2018-01-04T03:14:12.510Z,97467.34
2018-01-04T03:20:15.949Z,97456.98
2018-01-04T03:26:25.710Z,97449.63
2018-01-04T03:32:34.883Z,97454.02
2018-01-04T03:45:20.817Z,97448.45
2018-01-04T03:51:29.894Z,97457.31
2018-01-04T03:57:38.889Z,97449.09
2018-01-04T04:03:42.567Z,97451.01
2018-01-04T04:09:46.207Z,97459.78
2018-01-04T04:15:50.018Z,97462.75
2018-01-04T04:21:55.299Z,97473.39
2018-01-04T04:27:58.989Z,97473.55
2018-01-04T04:34:02.608Z,97479.15
2018-01-04T04:40:06.141Z,97499.61
2018-01-04T04:46:09.727Z,97495.03
2018-01-04T04:52:13.213Z,97502.79
2018-01-04T04:58:17.469Z,97513.72
2018-01-04T05:04:21.146Z,97506.48
2018-01-04T05:10:25.597Z,97525.29
2018-01-04T05:16:29.539Z,97520.67
2018-01-04T05:22:33.081Z,97532.37
2018-01-04T05:28:36.875Z,97518.76
2018-01-04T05:34:40.369Z,97519.97
2018-01-04T05:40:44.008Z,97492.25
2018-01-04T05:46:48.263Z,97487.25
2018-01-04T05:52:51.788Z,97487.23
2018-01-04T05:58:55.928Z,97483.33
2018-01-04T06:04:59.672Z,97489.69
2018-01-04T06:11:03.214Z,97495.38
2018-01-04T06:17:06.883Z,97504.84
2018-01-04T06:23:11.421Z,97494.41
2018-01-04T06:29:14.959Z,97472.55
2018-01-04T06:35:18.500Z,97478.96
2018-01-04T06:41:22.182Z,97487.08
2018-01-04T06:47:26.868Z,97495.99
2018-01-04T06:53:30.783Z,97506.39
2018-01-04T06:59:34.482Z,97515.87
2018-01-04T07:05:38.001Z,97511.94
2018-01-04T07:11:41.509Z,97522.93
2018-01-04T07:17:45.202Z,97524.33
2018-01-04T07:23:49.492Z,97534.13
2018-01-04T07:29:53.225Z,97537.55
2018-01-04T07:35:57.047Z,97533.02
2018-01-04T07:42:00.660Z,97520.62
2018-01-04T07:48:04.294Z,97524.78
2018-01-04T07:54:08.564Z,97537.33
2018-01-04T08:00:12.831Z,97525.10
2018-01-04T08:06:17.102Z,97533.97
2018-01-04T08:12:20.638Z,97545.32
2018-01-04T08:18:25.766Z,97545.17
2018-01-04T08:24:29.702Z,97551.42
2018-01-04T08:30:33.214Z,97554.55
2018-01-04T08:36:36.838Z,97558.41
2018-01-04T08:42:41.430Z,97557.76
2018-01-04T08:48:44.924Z,97561.08
2018-01-04T08:54:48.516Z,97547.95
2018-01-04T09:00:52.869Z,97563.49
2018-01-04T09:06:57.572Z,97568.10
2018-01-04T09:13:01.362Z,97560.71
2018-01-04T09:19:05.053Z,97563.06
2018-01-04T09:25:08.558Z,97546.86
2018-01-04T09:31:13.623Z,97556.16
2018-01-04T09:37:18.180Z,97559.11
2018-01-04T09:43:21.754Z,97563.77
2018-01-04T09:49:25.608Z,97559.54
2018-01-04T09:55:30.236Z,97553.38
2018-01-04T10:01:33.761Z,97539.17
2018-01-04T10:07:37.276Z,97533.10
2018-01-04T10:13:41.386Z,97523.45
2018-01-04T10:19:45.695Z,97531.13
2018-01-04T10:25:49.636Z,97536.19
2018-01-04T10:31:54.306Z,97536.59
2018-01-04T10:37:58.182Z,97529.77
2018-01-04T10:44:01.669Z,97527.19
2018-01-04T10:50:05.255Z,97517.45
2018-01-04T10:56:08.746Z,97503.20
2018-01-04T11:02:13.216Z,97502.89
2018-01-04T11:08:17.463Z,97505.44
2018-01-04T11:14:20.958Z,97498.66
2018-01-04T11:20:24.721Z,97498.89
2018-01-04T11:26:29.764Z,97504.75
2018-01-04T11:32:33.332Z,97497.05
2018-01-04T11:38:36.990Z,97474.42
2018-01-04T11:44:40.614Z,97466.23
2018-01-04T11:50:44.101Z,97448.44
2018-01-04T11:56:47.654Z,97443.23
2018-01-04T12:02:51.115Z,97430.59
2018-01-04T12:08:54.932Z,97411.89
2018-01-04T12:14:58.782Z,97397.79
2018-01-04T12:21:02.356Z,97378.92
2018-01-04T12:27:06.467Z,97369.52
2018-01-04T12:33:10.830Z,97374.05
2018-01-04T12:39:14.469Z,97379.78
2018-01-04T12:45:18.128Z,97367.46
2018-01-04T12:51:21.658Z,97359.58
2018-01-04T12:57:25.436Z,97343.06
2018-01-04T13:03:29.276Z,97333.04
2018-01-04T13:09:32.870Z,97330.00
2018-01-04T13:15:36.365Z,97327.42
2018-01-04T13:21:40.110Z,97321.43
2018-01-04T13:27:44.395Z,97313.19
2018-01-04T13:33:48.654Z,97301.35
2018-01-04T13:39:52.910Z,97302.20
2018-01-04T13:45:57.217Z,97302.00
2018-01-04T13:52:00.762Z,97294.80
2018-01-04T13:58:05.011Z,97278.56
2018-01-04T14:04:08.608Z,97271.14
2018-01-04T14:10:12.185Z,97263.50
2018-01-04T14:16:15.700Z,97255.55
2018-01-04T14:22:19.975Z,97244.40
2018-01-04T14:28:24.463Z,97249.28
2018-01-04T14:34:28.709Z,97258.18
2018-01-04T14:40:32.950Z,97228.50
2018-01-04T14:46:36.431Z,97215.86
2018-01-04T14:52:40.806Z,97213.68
2018-01-04T14:58:44.300Z,97209.44
2018-01-04T15:04:48.036Z,97192.25
2018-01-04T15:10:51.634Z,97187.36
2018-01-04T15:16:56.469Z,97181.34
2018-01-04T15:23:00.347Z,97158.58
2018-01-04T15:29:03.856Z,97165.16
2018-01-04T15:35:07.403Z,97150.83
2018-01-04T15:41:11.818Z,97145.77
2018-01-04T15:47:16.234Z,97143.31
2018-01-04T15:53:19.720Z,97126.08
2018-01-04T15:59:23.197Z,97121.80
2018-01-04T16:05:26.979Z,97113.82
2018-01-04T16:11:30.589Z,97106.78
2018-01-04T16:17:34.123Z,97099.21
2018-01-04T16:23:37.821Z,97082.04
2018-01-04T16:29:41.338Z,97072.64
2018-01-04T16:35:44.856Z,97062.12
2018-01-04T16:41:48.445Z,97059.25
2018-01-04T16:47:51.910Z,97035.87
2018-01-04T16:53:55.752Z,97030.91
2018-01-04T16:59:59.527Z,97015.51
2018-01-04T17:06:03.072Z,97003.65
2018-01-04T17:12:06.682Z,96989.20
2018-01-04T17:18:10.974Z,96986.71
2018-01-04T17:24:14.887Z,96987.40
2018-01-04T17:30:18.429Z,96985.02
2018-01-04T17:36:22.168Z,96983.97
2018-01-04T17:42:26.566Z,96979.81
2018-01-04T17:48:30.133Z,96970.38
2018-01-04T17:54:33.646Z,96969.86
2018-01-04T18:00:37.151Z,96963.05
2018-01-04T18:06:40.565Z,96964.25
2018-01-04T18:12:44.102Z,96947.18
2018-01-04T18:18:47.643Z,96949.23
2018-01-04T18:24:51.934Z,96948.39
2018-01-04T18:30:55.945Z,96950.31
2018-01-04T18:36:59.710Z,96937.64
2018-01-04T18:43:04.205Z,96934.56
2018-01-04T18:49:07.813Z,96914.44
2018-01-04T18:55:11.555Z,96929.03
2018-01-04T19:01:15.054Z,96908.28
2018-01-04T19:07:18.737Z,96878.85
2018-01-04T19:13:22.387Z,96869.27
2018-01-04T19:19:28.089Z,96859.32
2018-01-04T19:25:31.571Z,96884.30
2018-01-04T19:31:35.962Z,96889.20
2018-01-04T19:37:40.321Z,96888.52
2018-01-04T19:43:44.070Z,96886.66
2018-01-04T19:49:47.640Z,96895.25
2018-01-04T19:55:52.306Z,96882.30
2018-01-04T20:01:56.160Z,96882.56
2018-01-04T20:08:00.339Z,96879.00
2018-01-04T20:14:04.610Z,96880.11
2018-01-04T20:20:08.832Z,96886.55
2018-01-04T20:26:12.284Z,96886.56
2018-01-04T20:32:15.903Z,96880.33
2018-01-04T20:38:20.129Z,96856.59
2018-01-04T20:44:24.239Z,96889.34
2018-01-04T20:50:27.811Z,96899.94
2018-01-04T20:56:31.515Z,96904.94
2018-01-04T21:02:35.105Z,96905.73
2018-01-04T21:08:39.431Z,96914.56
2018-01-04T21:14:43.016Z,96906.10
2018-01-04T21:20:46.603Z,96915.51
2018-01-04T21:26:50.269Z,96929.16
2018-01-04T21:32:54.023Z,96921.02
2018-01-04T21:38:58.804Z,96914.56
2018-01-04T21:45:02.355Z,96909.89
2018-01-04T21:51:05.897Z,96922.31
2018-01-04T21:57:10.133Z,96928.25
2018-01-04T22:03:13.612Z,96926.26
2018-01-04T22:09:17.179Z,96937.02
2018-01-04T22:15:21.549Z,96953.96
2018-01-04T22:21:25.448Z,96957.14
2018-01-04T22:27:29.375Z,96972.49
2018-01-04T22:33:33.867Z,96988.39
2018-01-04T22:39:38.091Z,96997.08
2018-01-04T22:45:41.618Z,96992.65
2018-01-04T22:51:45.119Z,97001.03
2018-01-04T22:57:49.382Z,97022.59
2018-01-04T23:03:54.009Z,97042.72
2018-01-04T23:09:57.566Z,97065.31
2018-01-04T23:16:01.067Z,97066.26
2018-01-04T23:22:04.517Z,97058.23
2018-01-04T23:28:08.142Z,97087.48
2018-01-04T23:34:11.624Z,97097.29
2018-01-04T23:40:15.232Z,97090.48
2018-01-04T23:46:18.763Z,97102.17
2018-01-04T23:52:22.396Z,97109.56
2018-01-04T23:58:26.584Z,97144.80
